createdAt,value
2022-12-23T00:01:23.901Z,18.1
2022-12-23T00:06:26.925Z,18.1
2022-12-23T00:11:26.713Z,18.1
2022-12-23T00:16:27.102Z,18
2022-12-23T00:21:27.231Z,18.1
2022-12-23T00:26:28.217Z,18.1
2022-12-23T00:31:27.639Z,18
2022-12-23T00:36:28.181Z,17.7
2022-12-23T00:41:27.971Z,18
2022-12-23T00:46:31.115Z,18
2022-12-23T00:51:30.943Z,18
2022-12-23T00:56:31.233Z,18
2022-12-23T01:01:30.437Z,18
2022-12-23T01:06:30.866Z,18
2022-12-23T01:11:31.078Z,18
2022-12-23T01:16:34.294Z,18
2022-12-23T01:21:34.090Z,18
2022-12-23T01:26:34.323Z,17.9
2022-12-23T01:31:34.896Z,18
2022-12-23T01:36:34.910Z,18
2022-12-23T01:41:35.196Z,18
2022-12-23T01:46:36.471Z,17.9
2022-12-23T01:51:36.130Z,18
2022-12-23T01:56:39.155Z,18
2022-12-23T02:01:38.938Z,18
2022-12-23T02:06:39.117Z,17.9
2022-12-23T02:11:39.241Z,18
2022-12-23T02:16:39.466Z,18
2022-12-23T02:21:42.325Z,18
2022-12-23T02:26:41.968Z,18
2022-12-23T02:31:42.255Z,17.9
2022-12-23T02:36:45.483Z,17.8
2022-12-23T02:41:45.081Z,17.8
2022-12-23T02:46:45.387Z,17.9
2022-12-23T02:51:45.743Z,18
2022-12-23T02:56:46.173Z,17.9
2022-12-23T03:01:46.521Z,17.8
2022-12-23T03:06:46.895Z,17.9
2022-12-23T03:11:50.016Z,17.8
2022-12-23T03:16:51.660Z,17.8
2022-12-23T03:21:51.311Z,17.9
2022-12-23T03:26:51.487Z,17.9
2022-12-23T03:31:51.470Z,17.9
2022-12-23T03:36:54.788Z,17.9
2022-12-23T03:41:54.406Z,17.9
2022-12-23T03:46:54.877Z,17.9
2022-12-23T03:51:54.825Z,17.9
2022-12-23T03:56:57.833Z,17.9
2022-12-23T04:01:57.825Z,17.7
2022-12-23T04:06:58.020Z,17.8
2022-12-23T04:11:58.147Z,17.9
2022-12-23T04:16:58.531Z,17.9
2022-12-23T04:21:58.774Z,17.9
2022-12-23T04:26:59.091Z,17.7
2022-12-23T04:31:59.485Z,17.8
2022-12-23T04:36:59.877Z,17.8
2022-12-23T04:42:02.902Z,17.8
2022-12-23T04:47:02.890Z,17.8
2022-12-23T04:52:03.245Z,17.8
2022-12-23T04:57:03.579Z,17.8
2022-12-23T05:02:04.062Z,17.8
2022-12-23T05:07:06.961Z,17.8
2022-12-23T05:12:06.820Z,17.9
2022-12-23T05:17:08.240Z,17.8
2022-12-23T05:22:07.730Z,17.9
2022-12-23T05:27:08.060Z,17.8
2022-12-23T05:32:08.423Z,17.6
2022-12-23T05:37:08.600Z,17.8
2022-12-23T05:42:09.015Z,17.8
2022-12-23T05:47:09.059Z,17.8
2022-12-23T05:52:09.480Z,17.8
2022-12-23T05:57:09.492Z,17.9
2022-12-23T06:02:12.688Z,17.9
2022-12-23T06:07:15.121Z,18
2022-12-23T06:12:14.861Z,18
2022-12-23T06:17:15.166Z,18
2022-12-23T06:22:15.352Z,18
2022-12-23T06:27:15.645Z,18
2022-12-23T06:32:15.887Z,18.1
2022-12-23T06:37:16.271Z,18
2022-12-23T06:42:16.470Z,18
2022-12-23T06:47:16.835Z,18
2022-12-23T06:52:17.149Z,18
2022-12-23T06:57:17.372Z,18.1
2022-12-23T07:02:17.711Z,18
2022-12-23T07:07:17.896Z,18
2022-12-23T07:12:18.211Z,18.1
2022-12-23T07:17:18.641Z,18
2022-12-23T07:22:19.053Z,18.1
2022-12-23T07:27:21.891Z,18.1
2022-12-23T07:32:21.791Z,18.2
2022-12-23T07:37:22.106Z,18.1
2022-12-23T07:42:43.936Z,18.2
2022-12-23T07:47:22.580Z,18.3
2022-12-23T07:52:22.708Z,18.3
2022-12-23T07:57:22.954Z,18.4
2022-12-23T08:02:23.572Z,18.4
2022-12-23T08:07:23.759Z,18.5
2022-12-23T08:12:24.191Z,18.6
2022-12-23T08:17:24.455Z,18.7
2022-12-23T08:22:24.797Z,18.8
2022-12-23T08:27:27.830Z,18.7
2022-12-23T08:32:27.496Z,18.7
2022-12-23T08:37:27.655Z,18.8
2022-12-23T08:42:28.226Z,18.8
2022-12-23T08:47:28.426Z,18.9
2022-12-23T08:52:28.692Z,18.9
2022-12-23T08:57:29.000Z,18.9
2022-12-23T09:02:32.082Z,18.9
2022-12-23T09:07:31.678Z,18.9
2022-12-23T09:12:31.986Z,18.9
2022-12-23T09:17:32.232Z,18.9
2022-12-23T09:22:32.472Z,18.9
2022-12-23T09:27:32.855Z,18.9
2022-12-23T09:32:33.107Z,18.9
2022-12-23T09:37:33.386Z,18.9
2022-12-23T09:42:36.302Z,19
2022-12-23T09:47:38.956Z,19
2022-12-23T09:52:41.621Z,19.1
2022-12-23T09:57:44.143Z,19
2022-12-23T10:02:46.641Z,19
2022-12-23T10:07:46.300Z,19.1
2022-12-23T10:12:46.330Z,19.2
2022-12-23T10:17:46.369Z,19.3
2022-12-23T10:22:46.567Z,19.2
2022-12-23T10:27:46.932Z,19.3
2022-12-23T10:32:47.160Z,19.4
2022-12-23T10:37:47.329Z,19.5
2022-12-23T10:42:50.209Z,19.5
2022-12-23T10:47:49.999Z,19.5
2022-12-23T10:52:50.309Z,19.4
2022-12-23T10:57:50.859Z,19.5
2022-12-23T11:02:51.748Z,19.8
2022-12-23T11:07:52.577Z,20.2
2022-12-23T11:12:53.105Z,20.3
2022-12-23T11:17:53.388Z,20.9
2022-12-23T11:22:53.940Z,21.6
2022-12-23T11:27:54.523Z,22.2
2022-12-23T11:32:57.850Z,22.8
2022-12-23T11:37:58.433Z,23.2
2022-12-23T11:42:58.625Z,23.5
2022-12-23T11:47:58.841Z,23.6
2022-12-23T11:52:58.935Z,23.5
2022-12-23T11:57:59.155Z,23.6
2022-12-23T12:02:59.307Z,23.5
2022-12-23T12:07:59.295Z,23.5
2022-12-23T12:12:59.376Z,23.4
2022-12-23T12:17:59.065Z,22.7
2022-12-23T12:22:58.483Z,22.4
2022-12-23T12:27:58.422Z,22.2
2022-12-23T12:32:58.401Z,22.1
2022-12-23T12:37:58.271Z,22.1
2022-12-23T12:42:58.265Z,22.1
2022-12-23T12:48:04.571Z,22
2022-12-23T12:52:58.656Z,22.1
2022-12-23T12:58:01.345Z,22.1
2022-12-23T13:03:00.895Z,22.1
2022-12-23T13:08:00.911Z,22.1
2022-12-23T13:13:00.997Z,22.2
2022-12-23T13:18:03.592Z,22.2
2022-12-23T13:23:15.073Z,22.2
2022-12-23T13:28:01.367Z,22.4
2022-12-23T13:33:04.248Z,22.4
2022-12-23T13:38:04.171Z,22.4
2022-12-23T13:43:04.314Z,22.4
2022-12-23T13:48:05.226Z,22.4
2022-12-23T13:53:04.214Z,22.4
2022-12-23T13:58:04.575Z,22.5
2022-12-23T14:03:07.556Z,22.5
2022-12-23T14:08:07.026Z,22.4
2022-12-23T14:13:07.117Z,22.4
2022-12-23T14:18:06.897Z,22.3
2022-12-23T14:23:07.167Z,22.3
2022-12-23T14:28:07.422Z,22.4
2022-12-23T14:33:07.517Z,22.3
2022-12-23T14:38:07.840Z,22.3
2022-12-23T14:43:10.819Z,22.3
2022-12-23T14:48:10.409Z,22.4
2022-12-23T14:53:13.403Z,22.2
2022-12-23T14:58:15.657Z,22.3
2022-12-23T15:03:18.174Z,22.3
2022-12-23T15:08:20.337Z,22.4
2022-12-23T15:13:20.119Z,22.3
2022-12-23T15:18:20.190Z,22.3
2022-12-23T15:23:20.354Z,22.3
2022-12-23T15:28:20.012Z,22.4
2022-12-23T15:33:51.711Z,22.3
2022-12-23T15:38:20.236Z,22.3
2022-12-23T15:43:20.531Z,22.3
2022-12-23T15:48:20.569Z,22.4
2022-12-23T15:53:20.819Z,22.2
2022-12-23T15:58:20.913Z,22.4
2022-12-23T16:03:21.266Z,22.3
2022-12-23T16:08:26.703Z,22.3
2022-12-23T16:13:24.397Z,22.4
2022-12-23T16:18:26.754Z,22.3
2022-12-23T16:23:25.993Z,22.4
2022-12-23T16:28:28.814Z,22.3
2022-12-23T16:33:31.208Z,22.3
2022-12-23T16:38:30.731Z,22.3
2022-12-23T16:43:30.855Z,22.3
2022-12-23T16:48:31.052Z,22.2
2022-12-23T16:53:33.825Z,22.2
2022-12-23T16:58:36.308Z,22.2
2022-12-23T17:03:38.960Z,22.2
2022-12-23T17:08:38.361Z,22.1
2022-12-23T17:13:41.313Z,22.2
2022-12-23T17:18:41.009Z,22.1
2022-12-23T17:23:41.043Z,22.1
2022-12-23T17:28:41.172Z,22.1
2022-12-23T17:33:43.851Z,22.1
2022-12-23T17:38:43.427Z,22.2
2022-12-23T17:43:43.662Z,22.1
2022-12-23T17:48:44.594Z,22.2
2022-12-23T17:53:44.792Z,22.1
2022-12-23T17:58:45.087Z,22.1
2022-12-23T18:03:45.129Z,21.9
2022-12-23T18:08:44.674Z,21.4
2022-12-23T18:13:44.161Z,21.1
2022-12-23T18:18:46.460Z,20.8
2022-12-23T18:23:43.881Z,20.5
2022-12-23T18:28:43.529Z,20.3
2022-12-23T18:33:44.703Z,20.1
2022-12-23T18:38:44.716Z,20
2022-12-23T18:43:47.504Z,19.8
2022-12-23T18:48:49.975Z,19.7
2022-12-23T18:53:49.369Z,19.8
2022-12-23T18:58:49.232Z,19.7
2022-12-23T19:03:49.423Z,19.6
2022-12-23T19:08:49.346Z,19.5
2022-12-23T19:13:52.085Z,19.6
2022-12-23T19:18:54.389Z,19.5
2022-12-23T19:23:53.991Z,19.5
2022-12-23T19:28:54.026Z,19.4
2022-12-23T19:33:54.174Z,19.4
2022-12-23T19:38:54.217Z,19.3
2022-12-23T19:43:54.255Z,19.4
2022-12-23T19:48:54.443Z,19.3
2022-12-23T19:53:54.359Z,19.3
2022-12-23T19:58:54.521Z,19.3
2022-12-23T20:03:54.623Z,19.4
2022-12-23T20:08:59.927Z,19.3
2022-12-23T20:13:54.896Z,19.3
2022-12-23T20:18:56.722Z,19.2
2022-12-23T20:23:56.677Z,19.2
2022-12-23T20:28:56.800Z,19.2
2022-12-23T20:33:57.133Z,19.2
2022-12-23T20:38:58.443Z,19.2
2022-12-23T20:48:58.677Z,19.1
2022-12-23T20:53:58.807Z,19.2
2022-12-23T20:58:58.817Z,19.1
2022-12-23T21:03:58.922Z,19.1
2022-12-23T21:08:59.126Z,19
2022-12-23T21:14:04.217Z,19.1
2022-12-23T21:18:59.421Z,19
2022-12-23T21:23:59.683Z,19
2022-12-23T21:28:59.770Z,19
2022-12-23T21:33:59.891Z,19
2022-12-23T21:39:00.090Z,18.8
2022-12-23T21:44:00.229Z,18.9
2022-12-23T21:49:00.287Z,18.8
2022-12-23T21:54:00.558Z,18.9
2022-12-23T21:59:00.662Z,18.9
2022-12-23T22:04:00.844Z,18.9
2022-12-23T22:09:01.144Z,18.8
2022-12-23T22:14:01.354Z,18.8
2022-12-23T22:19:01.600Z,18.7
2022-12-23T22:24:01.823Z,18.8
2022-12-23T22:29:02.045Z,18.7
2022-12-23T22:34:02.268Z,18.6
2022-12-23T22:39:02.590Z,18.8
2022-12-23T22:44:02.655Z,18.8
2022-12-23T22:49:03.026Z,18.7
2022-12-23T22:54:03.031Z,18.7
2022-12-23T22:59:05.989Z,18.8
2022-12-23T23:04:05.715Z,18.6
2022-12-23T23:09:05.817Z,18.7
2022-12-23T23:14:06.110Z,18.6
2022-12-23T23:19:08.143Z,18.6
2022-12-23T23:24:08.121Z,18.4
2022-12-23T23:29:08.069Z,18.6
2022-12-23T23:34:07.686Z,18.7
2022-12-23T23:39:07.880Z,18.6
2022-12-23T23:44:07.978Z,18.6
2022-12-23T23:49:07.997Z,18.6
2022-12-23T23:54:07.895Z,18.6
2022-12-23T23:59:07.889Z,18.5
